Portada
METAR-TAF:

METAR-TAF

Aeropuertos :

Sarí, Irán

latitud: 36-38-09N, longitud: 53-11-37E, altitud: 11 m

Observación

El informe se hizo hace 28 minutos, a las 23:00 UTC
Viento 6 kt del norte
Temperatura 8°C
Humedad 93%
Presión 1025 hPa
Visibilidad: 6000 m
Escasas nubes a una altura de 2500 ft, Cumulonimbus.
Cielo nuboso a una altura de 3000 ft
Cielo cubierto a una altura de 8000 ft
lluvia

METAR: OINZ 242300Z 36006KT 6000 RA FEW025CB BKN030 OVC080 08/07 Q1025

Hora: 02:58 (23:28 UTC)


TAF: falta

Observaciones y pronósticos meteorológicos de más de 4000 aeropuertos (mensajes METAR y TAF).

Los puntos amarillos y rojos representan las estaciones disponibles.

Ponga el ratón en el punto deseado para ver el nombre de la estación.

Haga clic para ver las observaciones y los pronósticos meteorológicos.

Para cambiar el mapa : haga clic en los botones verdes con una cruz de color negro para hacer un zoom, en el botón verde con un guión para alejar o en las flechas verdes para mapas adyacentes.


METAR-TAF: